Sardis, Tennessee
Current Conditions -  °F | °C
As of 6:55 PM on Friday 19 Dec 2014 (Local Time) from KPVE Reporting Station
Scattered Clouds Scattered Clouds  
Wind Chill: 34°   Ceiling: Unl
Heat Index: 39°   Visibility: 10mi
Dew Point: 28°   Wind: 8mph
Humidity: 65%   Direction: 50°NE
Pressure: 30.2"   Gusts: NA
Location:  35.44°N, 88.29°W
Report Text: KPVE 200055Z AUTO 05007KT 10SM SCT075 SCT095 04/M02 A3020 RMK
Loading
Personal Weather Stations






























Interactive Weather Map New forecast layout! Learn more

10-Day Weather Forecast

Advertisements
Track Severe Weather on mobile